Terminal Aerodrome Forecast
Issued by NWS

Current Version | Previous Version | Text Only | Print | Product List | Glossary Off
Versions: 1 2 3 4 5 6 7 8 9 10 11 12 13 14 15 16 17 18 19

073
FTUS41 KILN 140527
TAFLCK
TAF
KLCK 140527Z 1406/1506 VRB03KT P6SM SKC
     FM140700 VRB03KT 4SM BR FEW100
     FM141300 16004KT P6SM SCT100
     FM141600 18008KT P6SM SCT080
     FM150500 19010KT P6SM SCT040 BKN080=

USA.gov is the U.S. government's official web portal to all federal, state and local government web resources and services.